createdAt,value
2023-02-08T00:00:45.569Z,241.90
2023-02-08T00:03:13.550Z,233.73
2023-02-08T00:05:41.330Z,229.93
2023-02-08T00:08:09.287Z,238.50
2023-02-08T00:10:37.096Z,236.80
2023-02-08T00:13:06.089Z,236.10
2023-02-08T00:15:33.710Z,238.70
2023-02-08T00:18:01.370Z,231.60
2023-02-08T00:20:29.092Z,241.53
2023-02-08T00:22:57.355Z,230.27
2023-02-08T00:25:24.995Z,231.20
2023-02-08T00:27:52.711Z,234.13
2023-02-08T00:30:21.916Z,239.30
2023-02-08T00:32:49.628Z,221.73
2023-02-08T00:35:17.365Z,228.27
2023-02-08T00:37:44.963Z,225.03
2023-02-08T00:40:13.333Z,227.57
2023-02-08T00:42:41.388Z,229.33
2023-02-08T00:45:10.120Z,225.73
2023-02-08T00:47:39.226Z,215.67
2023-02-08T00:50:08.017Z,219.27
2023-02-08T00:52:35.572Z,220.80
2023-02-08T00:55:03.243Z,217.47
2023-02-08T00:57:32.617Z,231.20
2023-02-08T01:00:00.288Z,231.57
2023-02-08T01:02:28.784Z,228.73
2023-02-08T01:04:57.769Z,227.03
2023-02-08T01:07:25.379Z,225.50
2023-02-08T01:09:53.287Z,246.17
2023-02-08T01:12:21.013Z,237.03
2023-02-08T01:14:48.704Z,246.33
2023-02-08T01:17:16.436Z,245.53
2023-02-08T01:19:44.049Z,248.00
2023-02-08T01:22:13.011Z,243.73
2023-02-08T01:24:40.714Z,239.30
2023-02-08T01:27:08.336Z,233.27
2023-02-08T01:29:36.187Z,228.27
2023-02-08T01:32:03.791Z,224.03
2023-02-08T01:34:31.429Z,221.57
2023-02-08T01:36:59.097Z,223.37
2023-02-08T01:39:28.064Z,214.03
2023-02-08T01:41:55.826Z,217.20
2023-02-08T01:45:02.918Z,207.80
2023-02-08T01:47:31.041Z,209.17
2023-02-08T01:49:58.803Z,214.10
2023-02-08T01:52:30.111Z,209.70
2023-02-08T01:55:03.357Z,210.60
2023-02-08T01:57:31.553Z,214.83
2023-02-08T02:00:02.496Z,210.40
2023-02-08T02:02:30.897Z,220.97
2023-02-08T02:04:58.524Z,235.53
2023-02-08T02:07:29.881Z,223.80
2023-02-08T02:10:08.908Z,222.40
2023-02-08T02:12:38.954Z,233.37
2023-02-08T02:15:07.055Z,234.97
2023-02-08T02:17:35.841Z,233.93
2023-02-08T02:20:10.035Z,245.63
2023-02-08T02:22:58.037Z,250.67
2023-02-08T02:25:53.120Z,242.53
2023-02-08T02:28:53.130Z,249.17
2023-02-08T02:31:52.766Z,238.33
2023-02-08T02:34:27.239Z,239.97
2023-02-08T02:37:02.354Z,243.73
2023-02-08T02:39:40.214Z,239.80
2023-02-08T02:42:32.760Z,234.37
2023-02-08T02:45:09.452Z,238.23
2023-02-08T02:47:45.323Z,234.20
2023-02-08T02:50:20.247Z,237.03
2023-02-08T02:52:57.041Z,231.30
2023-02-08T02:55:27.045Z,231.73
2023-02-08T02:57:59.373Z,241.07
2023-02-08T03:00:31.164Z,232.67
2023-02-08T03:03:00.196Z,228.37
2023-02-08T03:05:29.075Z,224.73
2023-02-08T03:08:11.960Z,216.33
2023-02-08T03:11:00.195Z,230.87
2023-02-08T03:13:37.970Z,224.50
2023-02-08T03:16:18.116Z,215.10
2023-02-08T03:19:00.753Z,223.53
2023-02-08T03:21:39.017Z,212.57
2023-02-08T03:24:20.792Z,218.13
2023-02-08T03:26:56.830Z,216.03
2023-02-08T03:29:32.232Z,221.83
2023-02-08T03:32:03.713Z,225.60
2023-02-08T03:34:42.854Z,214.90
2023-02-08T03:37:16.180Z,234.10
2023-02-08T03:39:45.576Z,225.60
2023-02-08T03:42:16.409Z,224.47
2023-02-08T03:44:52.266Z,226.60
2023-02-08T03:47:25.743Z,226.17
2023-02-08T03:49:58.019Z,222.77
2023-02-08T03:52:26.357Z,217.40
2023-02-08T03:54:58.131Z,223.27
2023-02-08T03:57:28.567Z,224.37
2023-02-08T03:59:59.599Z,220.43
2023-02-08T04:02:31.080Z,213.80
2023-02-08T04:05:01.814Z,215.30
2023-02-08T04:07:29.558Z,220.20
2023-02-08T04:09:58.042Z,214.90
2023-02-08T04:12:25.649Z,209.43
2023-02-08T04:14:53.281Z,218.33
2023-02-08T04:17:20.922Z,219.63
2023-02-08T04:19:48.615Z,214.73
2023-02-08T04:22:17.557Z,213.33
2023-02-08T04:24:45.290Z,217.73
2023-02-08T04:27:13.026Z,218.30
2023-02-08T04:29:41.643Z,216.40
2023-02-08T04:32:11.641Z,219.77
2023-02-08T04:34:39.328Z,226.00
2023-02-08T04:37:07.427Z,220.80
2023-02-08T04:39:36.521Z,216.20
2023-02-08T04:42:04.251Z,206.70
2023-02-08T04:44:32.858Z,200.70
2023-02-08T04:47:00.552Z,199.60
2023-02-08T04:49:28.150Z,203.27
2023-02-08T04:51:55.760Z,197.73
2023-02-08T04:54:23.435Z,200.13
2023-02-08T04:56:52.582Z,190.20
2023-02-08T04:59:20.264Z,215.03
2023-02-08T05:01:47.983Z,197.87
2023-02-08T05:04:15.642Z,197.37
2023-02-08T05:06:43.241Z,195.93
2023-02-08T05:09:11.160Z,197.00
2023-02-08T05:11:38.838Z,185.23
2023-02-08T05:14:07.789Z,183.93
2023-02-08T05:16:35.466Z,181.80
2023-02-08T05:19:03.144Z,190.87
2023-02-08T05:21:31.087Z,172.03
2023-02-08T05:23:58.696Z,178.63
2023-02-08T05:26:26.321Z,177.00
2023-02-08T05:28:53.985Z,176.33
2023-02-08T05:31:25.392Z,177.27
2023-02-08T05:33:53.947Z,179.33
2023-02-08T05:36:23.198Z,171.37
2023-02-08T05:38:51.202Z,174.00
2023-02-08T05:41:19.105Z,169.60
2023-02-08T05:43:46.832Z,172.60
2023-02-08T05:46:15.025Z,169.73
2023-02-08T05:48:44.545Z,165.60
2023-02-08T05:51:12.284Z,170.93
2023-02-08T05:53:40.100Z,163.40
2023-02-08T05:56:08.285Z,165.13
2023-02-08T05:58:36.185Z,161.07
2023-02-08T06:01:09.140Z,163.97
2023-02-08T06:03:36.827Z,161.83
2023-02-08T06:06:06.129Z,160.83
2023-02-08T06:08:34.182Z,155.13
2023-02-08T06:11:01.768Z,151.67
2023-02-08T06:13:30.117Z,159.53
2023-02-08T06:15:57.758Z,154.03
2023-02-08T06:18:25.364Z,160.27
2023-02-08T06:20:53.694Z,153.83
2023-02-08T06:23:23.169Z,159.63
2023-02-08T06:25:50.869Z,157.70
2023-02-08T06:28:18.542Z,150.40
2023-02-08T06:30:46.360Z,155.03
2023-02-08T06:33:15.775Z,156.47
2023-02-08T06:35:45.958Z,154.40
2023-02-08T06:38:13.651Z,154.87
2023-02-08T06:40:42.830Z,152.37
2023-02-08T06:43:10.626Z,154.07
2023-02-08T06:45:38.296Z,151.83
2023-02-08T06:48:06.383Z,148.20
2023-02-08T06:50:34.173Z,151.93
2023-02-08T06:53:01.814Z,147.60
2023-02-08T06:55:29.421Z,146.57
2023-02-08T06:57:58.449Z,145.07
2023-02-08T07:00:26.074Z,149.93
2023-02-08T07:02:53.621Z,150.50
2023-02-08T07:05:21.319Z,149.90
2023-02-08T07:07:49.520Z,146.57
2023-02-08T07:10:17.528Z,145.73
2023-02-08T07:12:45.162Z,152.80
2023-02-08T07:15:14.156Z,150.07
2023-02-08T07:17:41.940Z,145.20
2023-02-08T07:20:11.349Z,153.67
2023-02-08T07:22:39.563Z,146.47
2023-02-08T07:25:08.691Z,145.07
2023-02-08T07:27:36.640Z,140.40
2023-02-08T07:30:04.972Z,145.63
2023-02-08T07:32:34.896Z,143.03
2023-02-08T07:35:02.817Z,143.90
2023-02-08T07:37:31.694Z,140.67
2023-02-08T07:39:59.438Z,137.33
2023-02-08T07:42:27.149Z,142.63
2023-02-08T07:44:54.869Z,145.53
2023-02-08T07:47:22.520Z,152.10
2023-02-08T07:49:51.478Z,148.07
2023-02-08T07:52:19.045Z,149.20
2023-02-08T07:54:46.676Z,156.77
2023-02-08T07:57:20.293Z,160.40
2023-02-08T07:59:48.110Z,164.73
2023-02-08T08:02:16.496Z,157.83
2023-02-08T08:04:44.150Z,155.53
2023-02-08T08:07:13.076Z,155.23
2023-02-08T08:09:40.804Z,163.20
2023-02-08T08:12:08.457Z,159.37
2023-02-08T08:14:36.115Z,162.27
2023-02-08T08:17:03.715Z,165.40
2023-02-08T08:19:31.304Z,173.30
2023-02-08T08:21:59.257Z,171.87
2023-02-08T08:24:28.504Z,174.67
2023-02-08T08:26:56.150Z,177.87
2023-02-08T08:29:23.747Z,172.47
2023-02-08T08:31:52.082Z,174.67
2023-02-08T08:34:19.701Z,178.10
2023-02-08T08:36:47.343Z,179.60
2023-02-08T08:39:15.231Z,175.73
2023-02-08T08:41:44.197Z,185.57
2023-02-08T08:44:11.880Z,185.27
2023-02-08T08:46:40.173Z,202.87
2023-02-08T08:49:07.867Z,189.83
2023-02-08T08:51:36.126Z,192.17
2023-02-08T08:54:04.071Z,189.50
2023-02-08T08:56:32.792Z,193.83
2023-02-08T08:59:01.860Z,189.07
2023-02-08T09:01:29.701Z,182.13
2023-02-08T09:03:57.464Z,183.87
2023-02-08T09:06:25.041Z,190.47
2023-02-08T09:08:52.738Z,196.57
2023-02-08T09:11:20.412Z,191.60
2023-02-08T09:13:51.297Z,193.27
2023-02-08T09:16:20.841Z,195.30
2023-02-08T09:18:48.534Z,197.77
2023-02-08T09:21:18.170Z,189.90
2023-02-08T09:23:47.401Z,204.03
2023-02-08T09:26:17.772Z,202.30
2023-02-08T09:28:45.892Z,193.20
2023-02-08T09:31:19.687Z,184.33
2023-02-08T09:33:49.000Z,183.63
2023-02-08T09:36:17.953Z,184.17
2023-02-08T09:38:46.346Z,199.43
2023-02-08T09:41:25.930Z,190.07
2023-02-08T09:44:04.714Z,175.30
2023-02-08T09:46:38.462Z,172.13
2023-02-08T09:49:17.402Z,179.90
2023-02-08T09:51:48.608Z,174.70
2023-02-08T09:54:21.782Z,169.73
2023-02-08T09:56:51.468Z,155.73
2023-02-08T09:59:23.835Z,155.67
2023-02-08T10:01:54.867Z,149.43
2023-02-08T10:04:31.407Z,153.67
2023-02-08T10:06:59.137Z,154.47
2023-02-08T10:09:28.228Z,142.20
2023-02-08T10:12:07.737Z,137.37
2023-02-08T10:14:46.816Z,139.40
2023-02-08T10:17:41.487Z,132.67
2023-02-08T10:20:20.894Z,129.53
2023-02-08T10:23:01.228Z,133.23
2023-02-08T10:25:46.316Z,130.80
2023-02-08T10:28:29.256Z,119.20
2023-02-08T10:31:03.545Z,108.67
2023-02-08T10:33:37.280Z,101.37
2023-02-08T10:36:15.386Z,104.87
2023-02-08T10:38:46.775Z,92.07
2023-02-08T10:41:19.482Z,87.00
2023-02-08T10:43:51.014Z,85.40
2023-02-08T10:46:27.001Z,90.20
2023-02-08T10:49:04.936Z,77.03
2023-02-08T10:51:34.361Z,79.10
2023-02-08T10:54:02.012Z,78.93
2023-02-08T10:56:48.226Z,75.67
2023-02-08T10:59:20.207Z,78.57
2023-02-08T11:01:49.436Z,75.07
2023-02-08T11:04:17.939Z,67.77
2023-02-08T11:06:49.575Z,76.57
2023-02-08T11:09:29.085Z,81.17
2023-02-08T11:11:58.556Z,80.77
2023-02-08T11:14:44.636Z,83.77
2023-02-08T11:17:27.076Z,84.97
2023-02-08T11:19:54.962Z,86.60
2023-02-08T11:22:27.563Z,83.70
2023-02-08T11:24:58.543Z,84.37
2023-02-08T11:27:34.743Z,86.93
2023-02-08T11:30:22.056Z,85.50
2023-02-08T11:33:11.079Z,81.03
2023-02-08T11:35:38.759Z,78.23
2023-02-08T11:38:17.206Z,77.73
2023-02-08T11:40:46.573Z,74.60
2023-02-08T11:43:22.488Z,68.33
2023-02-08T11:45:50.780Z,73.03
2023-02-08T11:48:24.258Z,71.10
2023-02-08T11:50:58.828Z,65.93
2023-02-08T11:53:32.243Z,58.70
2023-02-08T11:56:05.879Z,58.30
2023-02-08T11:58:33.969Z,56.10
2023-02-08T12:01:04.523Z,55.77
2023-02-08T12:03:37.322Z,51.70
2023-02-08T12:06:21.302Z,51.73
2023-02-08T12:09:01.852Z,47.70
2023-02-08T12:11:37.751Z,43.90
2023-02-08T12:14:26.912Z,41.80
2023-02-08T12:17:20.462Z,40.27
2023-02-08T12:20:09.015Z,39.03
2023-02-08T12:22:41.898Z,40.20
2023-02-08T12:25:25.717Z,39.27
2023-02-08T12:28:01.329Z,39.60
2023-02-08T12:30:34.741Z,39.03
2023-02-08T12:33:25.143Z,40.97
2023-02-08T12:36:31.209Z,36.73
2023-02-08T12:39:29.137Z,34.73
2023-02-08T12:42:33.325Z,36.67
2023-02-08T12:45:27.495Z,34.73
2023-02-08T12:48:07.301Z,34.77
2023-02-08T12:50:41.095Z,32.03
2023-02-08T12:53:18.461Z,32.90
2023-02-08T12:55:49.826Z,31.40
2023-02-08T12:58:27.844Z,33.40
2023-02-08T13:00:57.546Z,29.53
2023-02-08T13:03:35.876Z,28.03
2023-02-08T13:06:07.444Z,28.93
2023-02-08T13:08:41.767Z,33.50
2023-02-08T13:11:20.118Z,30.67
2023-02-08T13:13:57.749Z,32.27
2023-02-08T13:16:30.326Z,32.03
2023-02-08T13:19:12.549Z,33.23
2023-02-08T13:21:43.721Z,31.63
2023-02-08T13:24:19.939Z,29.97
2023-02-08T13:26:47.619Z,30.60
2023-02-08T13:29:20.429Z,28.80
2023-02-08T13:31:52.323Z,29.20
2023-02-08T13:34:29.096Z,26.53
2023-02-08T13:37:00.419Z,27.60
2023-02-08T13:39:36.225Z,24.13
2023-02-08T13:42:06.673Z,22.40
2023-02-08T13:44:38.388Z,20.53
2023-02-08T13:47:07.698Z,20.70
2023-02-08T13:50:00.815Z,21.77
2023-02-08T13:52:49.102Z,21.33
2023-02-08T13:55:53.313Z,19.00
2023-02-08T13:59:05.728Z,22.03
2023-02-08T14:01:36.616Z,22.13
2023-02-08T14:04:34.961Z,19.73
2023-02-08T14:07:16.810Z,20.70
2023-02-08T14:10:11.231Z,20.90
2023-02-08T14:12:43.994Z,19.93
2023-02-08T14:15:30.802Z,20.63
2023-02-08T14:18:01.602Z,21.90
2023-02-08T14:20:41.014Z,20.87
2023-02-08T14:23:23.067Z,20.70
2023-02-08T14:25:52.465Z,20.37
2023-02-08T14:28:27.110Z,20.20
2023-02-08T14:30:58.729Z,19.43
2023-02-08T14:33:31.762Z,19.23
2023-02-08T14:36:02.773Z,20.60
2023-02-08T14:38:53.027Z,20.70
2023-02-08T14:41:43.643Z,19.27
2023-02-08T14:44:55.952Z,20.43
2023-02-08T14:47:58.932Z,19.93
2023-02-08T14:50:35.018Z,18.07
2023-02-08T14:53:07.707Z,19.50
2023-02-08T14:55:44.056Z,20.30
2023-02-08T14:58:16.211Z,20.73
2023-02-08T15:00:45.543Z,24.20
2023-02-08T15:03:17.411Z,20.43
2023-02-08T15:06:03.553Z,20.70
2023-02-08T15:08:31.384Z,19.67
2023-02-08T15:10:59.144Z,17.97
2023-02-08T15:13:26.874Z,16.63
2023-02-08T15:15:56.894Z,17.70
2023-02-08T15:18:29.001Z,18.37
2023-02-08T15:21:04.362Z,18.70
2023-02-08T15:23:32.722Z,17.97
2023-02-08T15:26:02.731Z,21.50
2023-02-08T15:28:32.648Z,18.23
2023-02-08T15:31:03.401Z,17.43
2023-02-08T15:33:31.970Z,18.40
2023-02-08T15:36:06.192Z,18.03
2023-02-08T15:38:38.380Z,23.13
2023-02-08T15:41:08.162Z,21.40
2023-02-08T15:43:37.239Z,18.40
2023-02-08T15:46:07.743Z,19.57
2023-02-08T15:48:39.396Z,17.83
2023-02-08T15:51:11.362Z,20.20
2023-02-08T15:53:41.583Z,21.37
2023-02-08T15:56:12.386Z,19.37
2023-02-08T15:58:45.150Z,19.30
2023-02-08T16:01:19.694Z,18.43
2023-02-08T16:03:50.331Z,20.60
2023-02-08T16:06:24.467Z,15.93
2023-02-08T16:08:55.207Z,17.83
2023-02-08T16:11:27.148Z,19.57
2023-02-08T16:13:58.186Z,20.03
2023-02-08T16:16:37.518Z,20.53
2023-02-08T16:19:07.721Z,18.10
2023-02-08T16:21:39.283Z,23.17
2023-02-08T16:24:20.394Z,20.13
2023-02-08T16:26:55.629Z,19.80
2023-02-08T16:29:27.272Z,18.03
2023-02-08T16:32:03.326Z,19.97
2023-02-08T16:34:33.851Z,19.77
2023-02-08T16:37:04.653Z,18.47
2023-02-08T16:39:42.247Z,17.93
2023-02-08T16:42:23.846Z,20.67
2023-02-08T16:45:17.447Z,23.57
2023-02-08T16:47:47.752Z,23.67
2023-02-08T16:50:18.356Z,19.67
2023-02-08T16:52:49.495Z,24.77
2023-02-08T16:55:20.437Z,30.73
2023-02-08T16:57:49.771Z,39.63
2023-02-08T17:00:23.595Z,39.70
2023-02-08T17:02:51.689Z,34.60
2023-02-08T17:05:20.868Z,29.63
2023-02-08T17:07:50.445Z,22.77
2023-02-08T17:10:21.978Z,28.40
2023-02-08T17:12:49.627Z,25.93
2023-02-08T17:15:17.671Z,27.57
2023-02-08T17:17:45.269Z,22.40
2023-02-08T17:20:20.978Z,27.17
2023-02-08T17:22:50.575Z,24.87
2023-02-08T17:25:19.884Z,27.80
2023-02-08T17:27:50.824Z,31.93
2023-02-08T17:30:22.741Z,26.60
2023-02-08T17:32:50.764Z,28.47
2023-02-08T17:35:19.002Z,27.90
2023-02-08T17:37:47.568Z,31.93
2023-02-08T17:40:17.691Z,21.97
2023-02-08T17:42:47.586Z,28.27
2023-02-08T17:45:15.670Z,26.90
2023-02-08T17:47:43.342Z,28.80
2023-02-08T17:50:12.530Z,26.60
2023-02-08T17:52:41.691Z,28.30
2023-02-08T17:55:13.409Z,32.37
2023-02-08T17:57:43.272Z,27.47
2023-02-08T18:00:13.827Z,27.20
2023-02-08T18:02:44.580Z,21.90
2023-02-08T18:05:12.315Z,27.10
2023-02-08T18:07:41.369Z,21.93
2023-02-08T18:10:10.977Z,23.20
2023-02-08T18:12:39.173Z,31.40
2023-02-08T18:15:11.986Z,30.17
2023-02-08T18:17:40.035Z,29.67
2023-02-08T18:20:09.073Z,27.90
2023-02-08T18:22:38.098Z,29.03
2023-02-08T18:25:06.565Z,26.60
2023-02-08T18:27:34.537Z,26.63
2023-02-08T18:30:02.179Z,25.83
2023-02-08T18:32:31.197Z,24.70
2023-02-08T18:35:00.166Z,30.20
2023-02-08T18:37:28.829Z,25.40
2023-02-08T18:39:56.617Z,35.40
2023-02-08T18:42:24.262Z,31.40
2023-02-08T18:44:51.835Z,25.67
2023-02-08T18:47:19.477Z,30.10
2023-02-08T18:49:48.436Z,24.03
2023-02-08T18:52:16.122Z,25.57
2023-02-08T18:54:43.757Z,23.20
2023-02-08T18:57:11.395Z,21.60
2023-02-08T18:59:39.577Z,22.67
2023-02-08T19:02:08.699Z,30.53
2023-02-08T19:04:38.668Z,26.67
2023-02-08T19:07:07.730Z,28.27
2023-02-08T19:09:35.798Z,30.70
2023-02-08T19:12:03.859Z,26.20
2023-02-08T19:14:31.503Z,24.17
2023-02-08T19:16:59.125Z,26.10
2023-02-08T19:19:26.818Z,29.70
2023-02-08T19:21:54.387Z,22.57
2023-02-08T19:24:23.347Z,23.80
2023-02-08T19:26:50.981Z,25.03
2023-02-08T19:29:21.784Z,21.93
2023-02-08T19:31:50.506Z,29.03
2023-02-08T19:34:19.174Z,27.47
2023-02-08T19:36:51.547Z,25.20
2023-02-08T19:39:21.178Z,25.07
2023-02-08T19:41:52.618Z,23.10
2023-02-08T19:44:21.732Z,27.37
2023-02-08T19:46:51.363Z,29.77
2023-02-08T19:49:19.741Z,31.40
2023-02-08T19:51:47.419Z,24.33
2023-02-08T19:54:17.064Z,32.83
2023-02-08T19:56:45.079Z,25.63
2023-02-08T19:59:19.920Z,25.33
2023-02-08T20:01:48.011Z,24.67
2023-02-08T20:04:16.153Z,24.03
2023-02-08T20:06:44.961Z,24.20
2023-02-08T20:09:16.273Z,25.83
2023-02-08T20:11:56.363Z,26.00
2023-02-08T20:14:26.545Z,26.13
2023-02-08T20:16:54.690Z,24.93
2023-02-08T20:19:22.339Z,26.17
2023-02-08T20:21:50.177Z,30.43
2023-02-08T20:24:18.561Z,30.40
2023-02-08T20:26:48.024Z,29.67
2023-02-08T20:29:16.673Z,31.87
2023-02-08T20:31:48.064Z,31.30
2023-02-08T20:34:18.619Z,33.50
2023-02-08T20:37:04.448Z,31.40
2023-02-08T20:39:34.087Z,32.97
2023-02-08T20:42:01.988Z,38.93
2023-02-08T20:44:30.805Z,32.67
2023-02-08T20:46:59.753Z,35.33
2023-02-08T20:49:27.414Z,36.40
2023-02-08T20:51:55.599Z,33.77
2023-02-08T20:54:24.919Z,35.67
2023-02-08T20:56:53.965Z,37.20
2023-02-08T20:59:22.317Z,38.40
2023-02-08T21:01:50.151Z,38.87
2023-02-08T21:04:23.120Z,38.33
2023-02-08T21:06:51.609Z,43.20
2023-02-08T21:09:21.027Z,36.20
2023-02-08T21:11:48.787Z,38.90
2023-02-08T21:14:20.597Z,36.50
2023-02-08T21:16:51.213Z,40.50
2023-02-08T21:19:21.395Z,36.83
2023-02-08T21:21:51.371Z,39.43
2023-02-08T21:24:18.968Z,39.67
2023-02-08T21:26:46.891Z,39.87
2023-02-08T21:29:14.471Z,40.60
2023-02-08T21:31:42.254Z,41.20
2023-02-08T21:34:09.995Z,38.10
2023-02-08T21:36:38.956Z,36.93
2023-02-08T21:39:06.706Z,38.23
2023-02-08T21:41:35.064Z,36.53
2023-02-08T21:44:04.703Z,37.10
2023-02-08T21:46:33.511Z,39.73
2023-02-08T21:49:19.500Z,39.47
2023-02-08T21:52:05.748Z,44.77
2023-02-08T21:54:44.470Z,36.60
2023-02-08T21:57:15.472Z,39.00
2023-02-08T21:59:43.521Z,40.90
2023-02-08T22:02:14.538Z,45.77
2023-02-08T22:04:46.631Z,37.90
2023-02-08T22:07:16.019Z,39.77
2023-02-08T22:09:43.614Z,43.40
2023-02-08T22:12:15.433Z,41.67
2023-02-08T22:14:43.329Z,41.07
2023-02-08T22:17:11.413Z,41.40
2023-02-08T22:19:39.269Z,40.43
2023-02-08T22:22:07.220Z,41.30
2023-02-08T22:24:37.925Z,38.87
2023-02-08T22:27:05.775Z,38.20
2023-02-08T22:29:33.987Z,40.47
2023-02-08T22:32:02.069Z,47.27
2023-02-08T22:34:29.867Z,40.70
2023-02-08T22:36:57.872Z,40.60
2023-02-08T22:39:25.619Z,41.77
2023-02-08T22:41:54.610Z,42.33
2023-02-08T22:44:22.340Z,46.03
2023-02-08T22:46:49.990Z,40.47
2023-02-08T22:49:17.672Z,41.93
2023-02-08T22:51:45.317Z,45.27
2023-02-08T22:54:12.907Z,42.20
2023-02-08T22:56:40.498Z,42.17
2023-02-08T22:59:09.514Z,44.77
2023-02-08T23:01:38.748Z,39.17
2023-02-08T23:04:06.613Z,44.50
2023-02-08T23:06:35.496Z,43.07
2023-02-08T23:09:03.684Z,40.67
2023-02-08T23:11:31.331Z,44.10
2023-02-08T23:13:59.177Z,44.30
2023-02-08T23:16:28.221Z,45.50
2023-02-08T23:18:55.828Z,45.10
2023-02-08T23:21:23.437Z,40.87
2023-02-08T23:23:51.141Z,46.07
2023-02-08T23:26:20.785Z,42.40
2023-02-08T23:28:50.717Z,49.70
2023-02-08T23:31:19.336Z,43.17
2023-02-08T23:33:48.896Z,43.77
2023-02-08T23:36:18.727Z,48.20
2023-02-08T23:38:46.395Z,45.70
2023-02-08T23:41:16.674Z,45.97
2023-02-08T23:43:44.676Z,46.67
2023-02-08T23:46:16.048Z,46.00
2023-02-08T23:48:44.214Z,44.60
2023-02-08T23:51:13.181Z,42.23
2023-02-08T23:53:41.438Z,42.63
2023-02-08T23:56:14.868Z,47.10
2023-02-08T23:58:43.290Z,48.87
